createdAt,value
2017-07-19T00:00:26.784Z,98.33
2017-07-19T00:01:36.318Z,98.43
2017-07-19T00:02:46.372Z,97.86
2017-07-19T00:03:55.912Z,99.39
2017-07-19T00:05:05.120Z,98.05
2017-07-19T00:06:14.024Z,97.95
2017-07-19T00:07:23.234Z,97.95
2017-07-19T00:08:32.590Z,99.01
2017-07-19T00:09:41.805Z,98.67
2017-07-19T00:10:51.015Z,99.2
2017-07-19T00:12:00.236Z,99.91
2017-07-19T00:13:09.772Z,99.63
2017-07-19T00:14:18.704Z,99.53
2017-07-19T00:15:27.589Z,99.15
2017-07-19T00:16:36.796Z,98.38
2017-07-19T00:17:46.325Z,99.01
2017-07-19T00:18:55.546Z,98.82
2017-07-19T00:20:05.182Z,99.53
2017-07-19T00:21:14.067Z,99.53
2017-07-19T00:22:23.611Z,99.99
2017-07-19T00:23:33.791Z,99.99
2017-07-19T00:24:43.011Z,99.99
2017-07-19T00:25:52.845Z,99.99
2017-07-19T00:27:01.731Z,99.99
2017-07-19T00:28:11.595Z,99.99
2017-07-19T00:29:20.813Z,99.99
2017-07-19T00:30:30.023Z,99.99
2017-07-19T00:31:39.339Z,99.99
2017-07-19T00:32:48.869Z,99.99
2017-07-19T00:33:58.079Z,99.99
2017-07-19T00:35:07.613Z,99.99
2017-07-19T00:36:17.147Z,99.99
2017-07-19T00:37:26.736Z,99.99
2017-07-19T00:38:35.622Z,99.99
2017-07-19T00:39:45.160Z,99.99
2017-07-19T00:40:55.015Z,99.99
2017-07-19T00:42:04.224Z,99.99
2017-07-19T00:43:14.291Z,99.99
2017-07-19T00:44:24.150Z,99.99
2017-07-19T00:45:33.369Z,99.99
2017-07-19T00:46:42.578Z,99.99
2017-07-19T00:47:52.112Z,99.99
2017-07-19T00:49:01.693Z,99.99
2017-07-19T00:50:10.905Z,99.99
2017-07-19T00:51:20.434Z,99.99
2017-07-19T00:52:30.291Z,99.99
2017-07-19T00:53:39.500Z,99.99
2017-07-19T00:54:48.683Z,99.99
2017-07-19T00:55:58.540Z,99.99
2017-07-19T00:57:08.094Z,99.99
2017-07-19T00:58:17.309Z,99.99
2017-07-19T00:59:26.837Z,99.99
2017-07-19T01:00:36.417Z,99.99
2017-07-19T01:01:45.301Z,99.99
2017-07-19T01:02:54.509Z,99.99
2017-07-19T01:04:04.046Z,99.99
2017-07-19T01:05:13.253Z,99.99
2017-07-19T01:06:22.403Z,99.99
2017-07-19T01:07:31.283Z,99.99
2017-07-19T01:08:40.488Z,99.99
2017-07-19T01:09:50.029Z,99.99
2017-07-19T01:10:59.567Z,99.99
2017-07-19T01:12:09.629Z,99.99
2017-07-19T01:13:19.164Z,99.99
2017-07-19T01:14:28.066Z,99.99
2017-07-19T01:15:37.596Z,99.99
2017-07-19T01:16:47.447Z,99.99
2017-07-19T01:17:56.657Z,99.99
2017-07-19T01:19:06.512Z,99.99
2017-07-19T01:20:16.368Z,99.99
2017-07-19T01:21:25.916Z,99.99
2017-07-19T01:22:34.803Z,99.99
2017-07-19T01:23:44.636Z,99.99
2017-07-19T01:24:54.184Z,99.99
2017-07-19T01:26:03.390Z,99.99
2017-07-19T01:27:12.927Z,99.99
2017-07-19T01:28:21.814Z,99.99
2017-07-19T01:29:31.818Z,99.99
2017-07-19T01:30:41.352Z,99.99
2017-07-19T01:31:50.249Z,99.99
2017-07-19T01:33:00.755Z,99.99
2017-07-19T01:34:10.614Z,99.99
2017-07-19T01:35:20.445Z,99.99
2017-07-19T01:36:29.331Z,99.99
2017-07-19T01:37:38.267Z,99.99
2017-07-19T01:38:47.470Z,99.99
2017-07-19T01:39:56.353Z,99.99
2017-07-19T01:41:05.642Z,99.99
2017-07-19T01:42:15.173Z,99.99
2017-07-19T01:43:24.382Z,99.99
2017-07-19T01:44:33.589Z,99.99
2017-07-19T01:45:43.116Z,99.99
2017-07-19T01:46:52.003Z,99.99
2017-07-19T01:48:01.540Z,99.99
2017-07-19T01:49:11.394Z,99.99
2017-07-19T01:50:20.924Z,99.99
2017-07-19T01:51:30.142Z,99.99
2017-07-19T01:52:40.797Z,99.99
2017-07-19T01:53:50.330Z,99.99
2017-07-19T01:54:59.221Z,99.99
2017-07-19T01:56:09.174Z,99.99
2017-07-19T01:57:18.705Z,99.99
2017-07-19T01:58:28.119Z,99.99
2017-07-19T01:59:37.338Z,99.99
2017-07-19T02:00:46.554Z,99.99
2017-07-19T02:01:55.451Z,99.99
2017-07-19T02:03:05.629Z,99.99
2017-07-19T02:04:14.888Z,99.99
2017-07-19T02:05:24.100Z,99.99
2017-07-19T02:06:33.019Z,99.99
2017-07-19T02:07:42.556Z,99.99
2017-07-19T02:08:52.430Z,99.99
2017-07-19T02:10:01.614Z,99.99
2017-07-19T02:11:11.147Z,99.99
2017-07-19T02:12:20.362Z,99.99
2017-07-19T02:13:29.255Z,99.99
2017-07-19T02:14:38.459Z,99.99
2017-07-19T02:15:47.730Z,99.99
2017-07-19T02:16:56.634Z,99.99
2017-07-19T02:18:06.165Z,99.99
2017-07-19T02:19:15.375Z,99.99
2017-07-19T02:20:24.907Z,99.99
2017-07-19T02:21:34.590Z,99.99
2017-07-19T02:22:44.121Z,99.99
2017-07-19T02:23:53.651Z,99.99
2017-07-19T02:25:02.859Z,99.99
2017-07-19T02:26:12.070Z,99.99
2017-07-19T02:27:22.070Z,99.99
2017-07-19T02:28:31.277Z,99.99
2017-07-19T02:29:40.158Z,99.99
2017-07-19T02:30:49.373Z,99.99
2017-07-19T02:31:59.230Z,99.99
2017-07-19T02:33:08.277Z,99.99
2017-07-19T02:34:18.136Z,99.99
2017-07-19T02:35:27.345Z,99.99
2017-07-19T02:36:36.563Z,99.99
2017-07-19T02:37:46.425Z,99.99
2017-07-19T02:38:56.587Z,99.99
2017-07-19T02:40:06.132Z,99.99
2017-07-19T02:41:15.685Z,99.99
2017-07-19T02:42:25.543Z,99.99
2017-07-19T02:43:35.726Z,99.99
2017-07-19T02:44:45.052Z,99.99
2017-07-19T02:45:55.386Z,99.99
2017-07-19T02:47:05.061Z,99.99
2017-07-19T02:48:15.039Z,99.99
2017-07-19T02:49:24.349Z,99.99
2017-07-19T02:50:34.049Z,99.99
2017-07-19T02:51:44.040Z,99.99
2017-07-19T02:52:54.015Z,99.99
2017-07-19T02:54:04.008Z,99.99
2017-07-19T02:55:13.981Z,99.99
2017-07-19T02:56:23.164Z,99.99
2017-07-19T02:57:32.480Z,99.99
2017-07-19T02:58:41.722Z,99.99
2017-07-19T02:59:51.254Z,99.99
2017-07-19T03:01:01.124Z,99.99
2017-07-19T03:02:11.131Z,99.99
2017-07-19T03:03:20.988Z,99.99
2017-07-19T03:04:30.532Z,99.99
2017-07-19T03:05:39.771Z,99.99
2017-07-19T03:06:48.979Z,99.99
2017-07-19T03:07:58.515Z,99.99
2017-07-19T03:09:07.722Z,99.99
2017-07-19T03:10:17.894Z,99.99
2017-07-19T03:11:27.751Z,99.99
2017-07-19T03:12:36.959Z,99.99
2017-07-19T03:13:46.864Z,99.99
2017-07-19T03:14:56.392Z,99.99
2017-07-19T03:16:06.255Z,99.99
2017-07-19T03:17:15.787Z,99.99
2017-07-19T03:18:25.323Z,99.99
2017-07-19T03:19:35.077Z,99.99
2017-07-19T03:20:44.289Z,99.99
2017-07-19T03:21:53.497Z,99.99
2017-07-19T03:23:02.707Z,99.99
2017-07-19T03:24:12.563Z,99.99
2017-07-19T03:25:22.568Z,99.99
2017-07-19T03:26:32.760Z,99.99
2017-07-19T03:27:42.292Z,99.99
2017-07-19T03:28:51.506Z,99.99
2017-07-19T03:30:01.052Z,99.99
2017-07-19T03:31:11.073Z,99.99
2017-07-19T03:32:20.604Z,99.99
2017-07-19T03:33:30.458Z,99.99
2017-07-19T03:34:39.683Z,99.99
2017-07-19T03:35:48.894Z,99.99
2017-07-19T03:36:58.255Z,99.99
2017-07-19T03:38:07.470Z,99.99
2017-07-19T03:39:17.034Z,99.99
2017-07-19T03:40:26.241Z,99.99
2017-07-19T03:41:35.447Z,99.99
2017-07-19T03:42:45.129Z,99.99
2017-07-19T03:43:54.669Z,99.99
2017-07-19T03:45:03.556Z,99.99
2017-07-19T03:46:13.087Z,99.99
2017-07-19T03:47:22.631Z,99.99
2017-07-19T03:48:32.277Z,99.99
2017-07-19T03:49:41.537Z,99.99
2017-07-19T03:50:50.742Z,99.99
2017-07-19T03:52:00.932Z,99.99
2017-07-19T03:53:11.116Z,99.99
2017-07-19T03:54:20.322Z,99.99
2017-07-19T03:55:30.192Z,99.99
2017-07-19T03:56:40.057Z,99.99
2017-07-19T03:57:49.911Z,99.99
2017-07-19T03:58:59.792Z,99.99
2017-07-19T04:00:09.409Z,99.99
2017-07-19T04:01:18.939Z,99.99
2017-07-19T04:02:28.175Z,99.99
2017-07-19T04:03:37.713Z,99.99
2017-07-19T04:04:47.571Z,99.99
2017-07-19T04:05:57.153Z,99.99
2017-07-19T04:07:06.686Z,99.99
2017-07-19T04:08:16.218Z,99.99
2017-07-19T04:09:25.766Z,99.99
2017-07-19T04:10:35.301Z,99.99
2017-07-19T04:11:44.928Z,99.99
2017-07-19T04:12:54.455Z,99.99
2017-07-19T04:14:04.307Z,99.99
2017-07-19T04:15:13.520Z,99.99
2017-07-19T04:16:23.384Z,99.99
2017-07-19T04:17:32.646Z,99.99
2017-07-19T04:18:42.178Z,99.99
2017-07-19T04:19:51.386Z,99.99
2017-07-19T04:21:00.269Z,99.99
2017-07-19T04:22:09.482Z,99.99
2017-07-19T04:23:19.056Z,99.99
2017-07-19T04:24:28.265Z,99.99
2017-07-19T04:25:37.793Z,99.99
2017-07-19T04:26:47.325Z,99.99
2017-07-19T04:27:56.853Z,99.99
2017-07-19T04:29:06.065Z,99.99
2017-07-19T04:30:15.604Z,99.99
2017-07-19T04:31:24.496Z,99.99
2017-07-19T04:32:34.034Z,99.99
2017-07-19T04:33:42.921Z,99.99
2017-07-19T04:34:52.451Z,99.99
2017-07-19T04:36:01.654Z,99.99
2017-07-19T04:37:11.185Z,99.99
2017-07-19T04:38:20.399Z,99.99
2017-07-19T04:39:30.256Z,99.99
2017-07-19T04:40:39.572Z,99.99
2017-07-19T04:41:49.108Z,99.99
2017-07-19T04:42:58.637Z,99.99
2017-07-19T04:44:07.531Z,99.99
2017-07-19T04:45:17.390Z,99.99
2017-07-19T04:46:26.575Z,99.99
2017-07-19T04:47:35.458Z,99.99
2017-07-19T04:48:44.341Z,99.99
2017-07-19T04:49:53.544Z,99.99
2017-07-19T04:51:03.084Z,99.99
2017-07-19T04:52:13.368Z,99.99
2017-07-19T04:53:23.555Z,99.99
2017-07-19T04:54:33.097Z,99.99
2017-07-19T04:55:42.630Z,99.99
2017-07-19T04:56:51.514Z,99.99
2017-07-19T04:58:00.407Z,99.99
2017-07-19T04:59:10.261Z,99.99
2017-07-19T05:00:20.441Z,99.99
2017-07-19T05:01:29.665Z,99.99
2017-07-19T05:02:39.533Z,99.99
2017-07-19T05:03:48.743Z,99.99
2017-07-19T05:04:59.056Z,99.99
2017-07-19T05:06:09.247Z,99.99
2017-07-19T05:07:18.803Z,99.99
2017-07-19T05:08:28.368Z,99.99
2017-07-19T05:09:37.582Z,99.99
2017-07-19T05:10:47.467Z,99.99
2017-07-19T05:11:56.500Z,99.99
2017-07-19T05:13:06.033Z,99.99
2017-07-19T05:14:14.922Z,99.99
2017-07-19T05:15:24.461Z,99.99
2017-07-19T05:16:33.680Z,99.99
2017-07-19T05:17:42.576Z,99.99
2017-07-19T05:18:51.467Z,99.99
2017-07-19T05:20:01.044Z,99.99
2017-07-19T05:21:10.259Z,99.99
2017-07-19T05:22:19.466Z,99.99
2017-07-19T05:23:28.776Z,99.99
2017-07-19T05:24:37.988Z,99.99
2017-07-19T05:25:47.200Z,99.99
2017-07-19T05:26:56.408Z,99.99
2017-07-19T05:28:06.614Z,99.99
2017-07-19T05:29:16.184Z,99.99
2017-07-19T05:30:26.040Z,99.99
2017-07-19T05:31:35.582Z,99.99
2017-07-19T05:32:45.117Z,99.99
2017-07-19T05:33:54.649Z,99.99
2017-07-19T05:35:03.533Z,99.99
2017-07-19T05:36:13.403Z,99.99
2017-07-19T05:37:23.259Z,99.99
2017-07-19T05:38:33.114Z,99.99
2017-07-19T05:39:42.651Z,99.99
2017-07-19T05:40:51.864Z,99.99
2017-07-19T05:42:00.751Z,99.99
2017-07-19T05:43:10.606Z,99.99
2017-07-19T05:44:20.187Z,99.99
2017-07-19T05:45:29.074Z,99.99
2017-07-19T05:46:37.959Z,99.99
2017-07-19T05:47:47.170Z,99.99
2017-07-19T05:48:56.380Z,99.99
2017-07-19T05:50:06.240Z,99.99
2017-07-19T05:51:15.772Z,99.99
2017-07-19T05:52:25.632Z,99.99
2017-07-19T05:53:35.164Z,99.99
2017-07-19T05:54:44.203Z,99.99
2017-07-19T05:55:53.734Z,99.99
2017-07-19T05:57:03.265Z,99.99
2017-07-19T05:58:12.479Z,99.99
2017-07-19T05:59:22.011Z,99.99
2017-07-19T06:00:31.368Z,99.99
2017-07-19T06:01:40.584Z,99.99
2017-07-19T06:02:50.115Z,99.99
2017-07-19T06:03:59.326Z,99.99
2017-07-19T06:05:08.870Z,99.99
2017-07-19T06:06:18.077Z,99.99
2017-07-19T06:07:27.609Z,99.99
2017-07-19T06:08:36.513Z,99.99
2017-07-19T06:09:46.376Z,99.99
2017-07-19T06:10:55.581Z,99.99
2017-07-19T06:12:05.768Z,99.99
2017-07-19T06:13:14.983Z,99.99
2017-07-19T06:14:23.870Z,99.99
2017-07-19T06:15:33.080Z,99.99
2017-07-19T06:16:42.629Z,99.99
2017-07-19T06:17:51.536Z,99.99
2017-07-19T06:19:01.105Z,99.99
2017-07-19T06:20:10.642Z,99.99
2017-07-19T06:21:20.499Z,99.99
2017-07-19T06:22:29.722Z,99.99
2017-07-19T06:23:38.984Z,99.99
2017-07-19T06:24:48.197Z,99.99
2017-07-19T06:25:57.411Z,99.99
2017-07-19T06:27:06.944Z,99.99
2017-07-19T06:28:16.478Z,99.99
2017-07-19T06:29:26.164Z,99.99
2017-07-19T06:30:35.063Z,99.99
2017-07-19T06:31:44.294Z,99.99
2017-07-19T06:32:54.169Z,99.99
2017-07-19T06:34:03.710Z,99.99
2017-07-19T06:35:13.450Z,99.99
2017-07-19T06:36:22.665Z,98.77
2017-07-19T06:37:32.523Z,99.44
2017-07-19T06:38:41.737Z,98.96
2017-07-19T06:39:50.663Z,98.86
2017-07-19T06:40:59.881Z,99.4
2017-07-19T06:42:09.416Z,98.43
2017-07-19T06:43:18.326Z,99.2
2017-07-19T06:44:27.858Z,98.53
2017-07-19T06:45:36.767Z,98.91
2017-07-19T06:46:45.759Z,98.82
2017-07-19T06:47:55.373Z,98.82
2017-07-19T06:49:04.984Z,99.99
2017-07-19T06:50:14.523Z,98.91
2017-07-19T06:51:23.731Z,98.91
2017-07-19T06:52:33.222Z,98.63
2017-07-19T06:53:43.402Z,98.24
2017-07-19T06:54:52.667Z,97.19
2017-07-19T06:56:02.528Z,96.8
2017-07-19T06:57:11.742Z,96.94
2017-07-19T06:58:21.283Z,97.71
2017-07-19T06:59:31.146Z,97.04
2017-07-19T07:00:40.355Z,97.33
2017-07-19T07:01:49.892Z,96.56
2017-07-19T07:02:59.102Z,95.98
2017-07-19T07:04:08.843Z,96.66
2017-07-19T07:05:18.060Z,96.56
2017-07-19T07:06:27.272Z,96.08
2017-07-19T07:07:36.519Z,95.26
2017-07-19T07:08:46.169Z,95.36
2017-07-19T07:09:56.004Z,94.59
2017-07-19T07:11:04.899Z,94.11
2017-07-19T07:12:14.762Z,94.21
2017-07-19T07:13:24.296Z,93.82
2017-07-19T07:14:33.513Z,93.91
2017-07-19T07:15:43.200Z,94.4
2017-07-19T07:16:52.747Z,94.01
2017-07-19T07:18:01.651Z,93
2017-07-19T07:19:11.200Z,93.87
2017-07-19T07:20:20.736Z,93.58
2017-07-19T07:21:29.826Z,93.87
2017-07-19T07:22:39.049Z,93.58
2017-07-19T07:23:48.597Z,93.58
2017-07-19T07:24:57.844Z,93.58
2017-07-19T07:26:07.063Z,93.87
2017-07-19T07:27:16.963Z,92.71
2017-07-19T07:28:26.220Z,93
2017-07-19T07:29:35.431Z,92.23
2017-07-19T07:30:44.969Z,92.28
2017-07-19T07:31:54.414Z,93.05
2017-07-19T07:33:04.578Z,92.38
2017-07-19T07:34:14.128Z,92.57
2017-07-19T07:35:23.341Z,91.41
2017-07-19T07:36:33.196Z,91.6
2017-07-19T07:37:42.734Z,91.41
2017-07-19T07:38:51.677Z,91.22
2017-07-19T07:40:01.224Z,90.73
2017-07-19T07:41:10.492Z,91.51
2017-07-19T07:42:20.493Z,91.13
2017-07-19T07:43:29.477Z,90.45
2017-07-19T07:44:38.921Z,90.16
2017-07-19T07:45:48.246Z,90.06
2017-07-19T07:46:57.581Z,90.16
2017-07-19T07:48:07.316Z,90.97
2017-07-19T07:49:16.698Z,89.82
2017-07-19T07:50:25.886Z,90.11
2017-07-19T07:51:34.857Z,91.07
2017-07-19T07:52:44.146Z,91.55
2017-07-19T07:53:53.127Z,89.43
2017-07-19T07:55:02.796Z,89.24
2017-07-19T07:56:12.699Z,87.65
2017-07-19T07:57:22.357Z,88.42
2017-07-19T07:58:31.386Z,88.71
2017-07-19T07:59:41.370Z,88.04
2017-07-19T08:00:51.067Z,88.71
2017-07-19T08:02:00.955Z,87.55
2017-07-19T08:03:10.291Z,86.59
2017-07-19T08:04:19.632Z,87.02
2017-07-19T08:05:29.316Z,87.02
2017-07-19T08:06:38.661Z,87.02
2017-07-19T08:07:48.283Z,86.44
2017-07-19T08:08:57.269Z,86.82
2017-07-19T08:10:06.662Z,87.7
2017-07-19T08:11:16.235Z,88.08
2017-07-19T08:12:25.566Z,86.82
2017-07-19T08:13:34.723Z,86.92
2017-07-19T08:14:44.045Z,86.1
2017-07-19T08:15:53.019Z,86.29
2017-07-19T08:17:02.310Z,84.65
2017-07-19T08:18:11.927Z,83.01
2017-07-19T08:19:21.241Z,83.11
2017-07-19T08:20:31.433Z,83.5
2017-07-19T08:21:40.328Z,83.3
2017-07-19T08:22:49.546Z,82.38
2017-07-19T08:23:58.761Z,81.22
2017-07-19T08:25:08.252Z,81.51
2017-07-19T08:26:17.813Z,83.05
2017-07-19T08:27:27.673Z,81.7
2017-07-19T08:28:37.252Z,82.76
2017-07-19T08:29:46.468Z,81.45
2017-07-19T08:30:55.408Z,81.51
2017-07-19T08:32:05.276Z,82.57
2017-07-19T08:33:14.819Z,81.45
2017-07-19T08:34:24.358Z,82.42
2017-07-19T08:35:34.224Z,81.45
2017-07-19T08:36:43.331Z,82.42
2017-07-19T08:37:52.243Z,81.84
2017-07-19T08:39:01.452Z,80.3
2017-07-19T08:40:11.637Z,80
2017-07-19T08:41:21.500Z,80.58
2017-07-19T08:42:31.213Z,81.26
2017-07-19T08:43:41.402Z,81.49
2017-07-19T08:44:50.313Z,81.74
2017-07-19T08:45:59.870Z,80.3
2017-07-19T08:47:09.415Z,79.52
2017-07-19T08:48:19.155Z,80.43
2017-07-19T08:49:28.372Z,81.01
2017-07-19T08:50:37.936Z,82.07
2017-07-19T08:51:46.845Z,81.88
2017-07-19T08:52:56.706Z,80.72
2017-07-19T08:54:06.395Z,80.33
2017-07-19T08:55:15.968Z,80.82
2017-07-19T08:56:25.550Z,81.49
2017-07-19T08:57:35.108Z,79.66
2017-07-19T08:58:44.322Z,79.95
2017-07-19T08:59:53.637Z,80.62
2017-07-19T09:01:02.862Z,80.86
2017-07-19T09:02:12.092Z,79.47
2017-07-19T09:03:21.953Z,78.92
2017-07-19T09:04:31.502Z,79.89
2017-07-19T09:05:41.424Z,79.22
2017-07-19T09:06:50.677Z,79.5
2017-07-19T09:07:59.893Z,79.5
2017-07-19T09:09:08.786Z,80.18
2017-07-19T09:10:17.997Z,79.22
2017-07-19T09:11:27.361Z,80.38
2017-07-19T09:12:36.578Z,79.54
2017-07-19T09:13:46.123Z,79.16
2017-07-19T09:14:55.023Z,78.38
2017-07-19T09:16:04.250Z,77.61
2017-07-19T09:17:13.942Z,79.06
2017-07-19T09:18:23.493Z,78.29
2017-07-19T09:19:32.388Z,78
2017-07-19T09:20:41.602Z,78.19
2017-07-19T09:21:51.148Z,78.87
2017-07-19T09:23:00.146Z,77.9
2017-07-19T09:24:09.686Z,78.38
2017-07-19T09:25:18.904Z,78.23
2017-07-19T09:26:28.765Z,78.81
2017-07-19T09:27:38.626Z,78.13
2017-07-19T09:28:48.649Z,77.36
2017-07-19T09:29:58.544Z,76.68
2017-07-19T09:31:08.470Z,75.65
2017-07-19T09:32:17.968Z,75.07
2017-07-19T09:33:26.866Z,75.95
2017-07-19T09:34:36.778Z,76.04
2017-07-19T09:35:46.318Z,77.11
2017-07-19T09:36:55.864Z,76.04
2017-07-19T09:38:05.109Z,75.46
2017-07-19T09:39:14.336Z,76.24
2017-07-19T09:40:23.649Z,76.18
2017-07-19T09:41:33.193Z,74.63
2017-07-19T09:42:42.087Z,73.91
2017-07-19T09:43:51.317Z,75.21
2017-07-19T09:45:01.178Z,74.63
2017-07-19T09:46:11.092Z,74.92
2017-07-19T09:47:20.638Z,74.63
2017-07-19T09:48:30.181Z,74.53
2017-07-19T09:49:39.403Z,73.47
2017-07-19T09:50:48.327Z,73.99
2017-07-19T09:51:58.170Z,74.82
2017-07-19T09:53:07.401Z,73.66
2017-07-19T09:54:17.260Z,72.05
2017-07-19T09:55:26.158Z,73.89
2017-07-19T09:56:36.362Z,73.79
2017-07-19T09:57:45.627Z,72.83
2017-07-19T09:58:54.893Z,73.11
2017-07-19T10:00:04.440Z,72.44
2017-07-19T10:01:13.979Z,73.41
2017-07-19T10:02:23.516Z,73.41
2017-07-19T10:03:32.880Z,75.24
2017-07-19T10:04:42.429Z,71.86
2017-07-19T10:05:51.657Z,71.99
2017-07-19T10:07:01.202Z,71.31
2017-07-19T10:08:10.419Z,72.28
2017-07-19T10:09:19.964Z,71.6
2017-07-19T10:10:29.177Z,71.02
2017-07-19T10:11:38.400Z,72.28
2017-07-19T10:12:48.078Z,71.12
2017-07-19T10:13:57.867Z,71.64
2017-07-19T10:15:07.952Z,69.99
2017-07-19T10:16:17.248Z,72.02
2017-07-19T10:17:26.761Z,70.47
2017-07-19T10:18:36.018Z,70.86
2017-07-19T10:19:45.298Z,70.09
2017-07-19T10:20:55.073Z,70.18
2017-07-19T10:22:04.057Z,69.99
2017-07-19T10:23:14.272Z,71.54
2017-07-19T10:24:23.541Z,69.6
2017-07-19T10:25:33.495Z,70.8
2017-07-19T10:26:42.941Z,70.09
2017-07-19T10:27:51.887Z,68.18
2017-07-19T10:29:01.126Z,68.66
2017-07-19T10:30:11.042Z,67.02
2017-07-19T10:31:19.969Z,68.18
2017-07-19T10:32:29.660Z,66.92
2017-07-19T10:33:38.985Z,68.96
2017-07-19T10:34:48.722Z,68.66
2017-07-19T10:35:58.261Z,67.79
2017-07-19T10:37:07.497Z,69.06
2017-07-19T10:38:16.849Z,66.95
2017-07-19T10:39:26.464Z,67.54
2017-07-19T10:40:35.702Z,67.73
2017-07-19T10:41:45.310Z,67.6
2017-07-19T10:42:54.859Z,67.34
2017-07-19T10:44:03.989Z,67.92
2017-07-19T10:45:13.602Z,68.41
2017-07-19T10:46:23.153Z,69.09
2017-07-19T10:47:32.721Z,69.18
2017-07-19T10:48:42.963Z,66.21
2017-07-19T10:49:52.670Z,65.63
2017-07-19T10:51:01.608Z,64.82
2017-07-19T10:52:11.173Z,66.21
2017-07-19T10:53:20.146Z,64.65
2017-07-19T10:54:29.728Z,64.95
2017-07-19T10:55:39.591Z,64.46
2017-07-19T10:56:49.209Z,65.24
2017-07-19T10:57:58.155Z,65.05
2017-07-19T10:59:07.763Z,63.49
2017-07-19T11:00:17.376Z,63.98
2017-07-19T11:01:26.751Z,63.98
2017-07-19T11:02:35.676Z,63.88
2017-07-19T11:03:44.600Z,63.52
2017-07-19T11:04:54.523Z,63.42
2017-07-19T11:06:03.788Z,63.32
2017-07-19T11:07:13.325Z,65.14
2017-07-19T11:08:23.274Z,63.42
2017-07-19T11:09:32.859Z,62.94
2017-07-19T11:10:42.461Z,63.04
2017-07-19T11:11:51.766Z,63.45
2017-07-19T11:13:01.166Z,63.36
2017-07-19T11:14:10.789Z,63.23
2017-07-19T11:15:20.145Z,63.07
2017-07-19T11:16:29.445Z,63.55
2017-07-19T11:17:38.678Z,62.94
2017-07-19T11:18:47.903Z,61.32
2017-07-19T11:19:58.296Z,62
2017-07-19T11:21:07.597Z,60.64
2017-07-19T11:22:16.893Z,60.77
2017-07-19T11:23:26.496Z,61.54
2017-07-19T11:24:35.912Z,61.05
2017-07-19T11:25:45.870Z,60.86
2017-07-19T11:26:55.457Z,60.67
2017-07-19T11:28:04.762Z,60.77
2017-07-19T11:29:14.568Z,60.28
2017-07-19T11:30:24.270Z,59.72
2017-07-19T11:31:33.569Z,60.21
2017-07-19T11:32:42.843Z,60.31
2017-07-19T11:33:52.096Z,60.02
2017-07-19T11:35:01.646Z,61.08
2017-07-19T11:36:11.253Z,60.02
2017-07-19T11:37:20.561Z,59.23
2017-07-19T11:38:29.797Z,59.05
2017-07-19T11:39:39.417Z,59.72
2017-07-19T11:40:49.352Z,58.95
2017-07-19T11:41:59.480Z,59.23
2017-07-19T11:43:09.124Z,59.46
2017-07-19T11:44:18.373Z,60.05
2017-07-19T11:45:27.943Z,58.87
2017-07-19T11:46:36.881Z,59.46
2017-07-19T11:47:46.014Z,58.69
2017-07-19T11:48:55.261Z,58.39
2017-07-19T11:50:04.844Z,59.07
2017-07-19T11:51:14.086Z,59.17
2017-07-19T11:52:23.681Z,59.17
2017-07-19T11:53:32.790Z,58.78
2017-07-19T11:54:41.735Z,59.3
2017-07-19T11:55:50.717Z,58.22
2017-07-19T11:57:00.627Z,57.84
2017-07-19T11:58:10.594Z,58.51
2017-07-19T11:59:19.910Z,59.07
2017-07-19T12:00:29.789Z,59.56
2017-07-19T12:01:39.374Z,59.07
2017-07-19T12:02:48.628Z,59.46
2017-07-19T12:03:58.249Z,59.85
2017-07-19T12:05:07.869Z,59.56
2017-07-19T12:06:17.622Z,60.24
2017-07-19T12:07:26.903Z,60.27
2017-07-19T12:08:36.180Z,59.49
2017-07-19T12:09:45.541Z,58.42
2017-07-19T12:10:54.938Z,59.78
2017-07-19T12:12:04.910Z,59.78
2017-07-19T12:13:14.317Z,59.3
2017-07-19T12:14:23.571Z,59.42
2017-07-19T12:15:32.704Z,59.23
2017-07-19T12:16:42.066Z,58.94
2017-07-19T12:17:51.046Z,58.84
2017-07-19T12:19:00.642Z,59.52
2017-07-19T12:20:10.896Z,58.25
2017-07-19T12:21:20.528Z,58.45
2017-07-19T12:22:30.200Z,57.47
2017-07-19T12:23:39.605Z,57.76
2017-07-19T12:24:49.596Z,58.94
2017-07-19T12:25:58.555Z,58.28
2017-07-19T12:27:07.858Z,58.77
2017-07-19T12:28:17.281Z,57.7
2017-07-19T12:29:26.531Z,57.5
2017-07-19T12:30:35.764Z,58.28
2017-07-19T12:31:45.408Z,57.89
2017-07-19T12:32:55.001Z,57.7
2017-07-19T12:34:04.741Z,57.99
2017-07-19T12:35:14.370Z,58.87
2017-07-19T12:36:23.354Z,57.31
2017-07-19T12:37:32.677Z,58.48
2017-07-19T12:38:42.347Z,58.67
2017-07-19T12:39:51.974Z,59.55
2017-07-19T12:41:01.243Z,57.7
2017-07-19T12:42:10.825Z,58.48
2017-07-19T12:43:20.402Z,58.38
2017-07-19T12:44:29.644Z,59.16
2017-07-19T12:45:39.137Z,58.48
2017-07-19T12:46:48.363Z,57.31
2017-07-19T12:47:57.701Z,57.99
2017-07-19T12:49:07.294Z,57.63
2017-07-19T12:50:16.944Z,57.43
2017-07-19T12:51:26.647Z,57.63
2017-07-19T12:52:35.578Z,58.5
2017-07-19T12:53:45.181Z,57.75
2017-07-19T12:54:54.094Z,57.75
2017-07-19T12:56:03.383Z,57.95
2017-07-19T12:57:12.321Z,57.65
2017-07-19T12:58:21.947Z,56.48
2017-07-19T12:59:31.541Z,55.9
2017-07-19T13:00:41.148Z,57.07
2017-07-19T13:01:50.774Z,56.29
2017-07-19T13:02:59.730Z,55.8
2017-07-19T13:04:09.368Z,56.48
2017-07-19T13:05:19.657Z,56.77
2017-07-19T13:06:29.572Z,56
2017-07-19T13:07:39.566Z,56.85
2017-07-19T13:08:48.654Z,56.87
2017-07-19T13:09:58.265Z,57.34
2017-07-19T13:11:07.543Z,57.26
2017-07-19T13:12:17.475Z,56.65
2017-07-19T13:13:27.059Z,57.24
2017-07-19T13:14:36.858Z,57.07
2017-07-19T13:15:45.813Z,55.9
2017-07-19T13:16:55.407Z,55.9
2017-07-19T13:18:05.629Z,55.22
2017-07-19T13:19:15.283Z,55.05
2017-07-19T13:20:24.605Z,55.05
2017-07-19T13:21:34.217Z,55.83
2017-07-19T13:22:43.834Z,55.32
2017-07-19T13:23:53.728Z,55.73
2017-07-19T13:25:03.347Z,54.66
2017-07-19T13:26:12.679Z,55.05
2017-07-19T13:27:22.307Z,55.73
2017-07-19T13:28:31.589Z,56.38
2017-07-19T13:29:40.609Z,55.51
2017-07-19T13:30:50.185Z,54.85
2017-07-19T13:31:59.595Z,55.22
2017-07-19T13:33:08.876Z,55.51
2017-07-19T13:34:18.465Z,53.88
2017-07-19T13:35:28.076Z,55.12
2017-07-19T13:36:37.361Z,55.22
2017-07-19T13:37:47.243Z,55.12
2017-07-19T13:38:56.881Z,55.51
2017-07-19T13:40:06.776Z,56
2017-07-19T13:41:16.694Z,55.93
2017-07-19T13:42:26.296Z,54.95
2017-07-19T13:43:35.793Z,55.27
2017-07-19T13:44:45.936Z,55.27
2017-07-19T13:45:55.555Z,53.03
2017-07-19T13:47:05.114Z,52.93
2017-07-19T13:48:14.433Z,53.15
2017-07-19T13:49:23.808Z,53.05
2017-07-19T13:50:33.777Z,52.27
2017-07-19T13:51:43.060Z,52.56
2017-07-19T13:52:52.623Z,52.47
2017-07-19T13:54:02.571Z,52.39
2017-07-19T13:55:11.658Z,53.27
2017-07-19T13:56:21.326Z,51.81
2017-07-19T13:57:30.616Z,52.59
2017-07-19T13:58:39.905Z,52.66
2017-07-19T13:59:49.843Z,54
2017-07-19T14:00:59.715Z,53.15
2017-07-19T14:02:09.706Z,52.88
2017-07-19T14:03:18.993Z,52.49
2017-07-19T14:04:29.129Z,52.03
2017-07-19T14:05:39.156Z,51.42
2017-07-19T14:06:48.768Z,50.54
2017-07-19T14:07:58.407Z,51.25
2017-07-19T14:09:07.702Z,51.34
2017-07-19T14:10:17.349Z,51.05
2017-07-19T14:11:27.281Z,50.39
2017-07-19T14:12:36.740Z,50.2
2017-07-19T14:13:46.353Z,49.99
2017-07-19T14:14:55.940Z,50.39
2017-07-19T14:16:05.531Z,49.6
2017-07-19T14:17:15.165Z,49.82
2017-07-19T14:18:24.869Z,49.31
2017-07-19T14:19:34.186Z,49.24
2017-07-19T14:20:43.474Z,49.33
2017-07-19T14:21:53.090Z,48.26
2017-07-19T14:23:02.414Z,48.87
2017-07-19T14:24:12.124Z,49.14
2017-07-19T14:25:21.708Z,47.3
2017-07-19T14:26:30.624Z,47.72
2017-07-19T14:27:39.860Z,47.6
2017-07-19T14:28:48.788Z,47.33
2017-07-19T14:29:58.459Z,47.13
2017-07-19T14:31:08.067Z,48.48
2017-07-19T14:32:17.975Z,48.58
2017-07-19T14:33:26.921Z,47.3
2017-07-19T14:34:36.555Z,50.1
2017-07-19T14:35:46.120Z,49.6
2017-07-19T14:36:55.380Z,48.26
2017-07-19T14:38:04.666Z,48.26
2017-07-19T14:39:13.963Z,48.43
2017-07-19T14:40:23.890Z,49.14
2017-07-19T14:41:34.126Z,48.97
2017-07-19T14:42:43.073Z,48.38
2017-07-19T14:43:52.993Z,48.11
2017-07-19T14:45:02.991Z,48.3
2017-07-19T14:46:12.913Z,48.6
2017-07-19T14:47:22.700Z,47.3
2017-07-19T14:48:32.302Z,48.21
2017-07-19T14:49:42.237Z,46.37
2017-07-19T14:50:52.215Z,46.95
2017-07-19T14:52:01.765Z,47.35
2017-07-19T14:53:10.925Z,46.44
2017-07-19T14:54:20.805Z,47.79
2017-07-19T14:55:30.397Z,48.19
2017-07-19T14:56:40.364Z,47.4